YXY weather

Whitehorse / Erik Nielsen International Airport
Whitehorse, Yukon Territory, Canada

Public forecast

Using degrees Celsius for public forecast. Weather courtesy of forecast.io.

METAR (pilot weather report)

Retrieved 2019/08/24 06:00 UTC (56 minutes ago):

CYXY 240600Z 35003KT 15SM -SHRA FEW020 SCT030 OVC060 09/08 A2953 RMK SF1CU3SC5 SF TR SLP020 DENSITY ALT 2700FT

TAF (pilot weather forecast)

Retrieved 2019/08/24 06:40 UTC (16 minutes ago):

TAF CYXY 240538Z 2406/2506 VRB03KT P6SM SCT020 OVC070 TEMPO 2406/2409 4SM -SHRA BR BKN020 FM240900 31005KT P6SM -RA SCT006 OVC020 TEMPO 2409/2418 2SM -RA BR OVC005 BECMG 2416/2418 33006KT FM241800 33008KT P6SM -SHRA BKN020 OVC080 FM242300 22008KT P6SM FEW030 BKN120 FM250000 23006KT P6SM FEW030 RMK NXT FCST BY 241200Z